Time;durP1;ratioP1;P1;durP2;ratioP2;P2;SDS_P1;SDS_P2;PMS_P1;PMS_P2;Temp;Humidity;BMP_temperature;BMP_pressure;BME280_temperature;BME280_humidity;BME280_pressure;Samples;Min_cycle;Max_cycle;Signal;HPM_P1;HPM_P2
2021/07/22 00:02:52;;;;;;;7.85;5.60;;;;;;;17.22;62.98;100520.20;126805;1088;114120;-80
2021/07/22 00:05:40;;;;;;;12.20;6.17;;;;;;;17.21;63.23;100527.27;126663;1090;102868;-81
2021/07/22 00:08:28;;;;;;;9.37;5.13;;;;;;;17.20;63.41;100532.63;126599;1090;114164;-81
2021/07/22 00:11:17;;;;;;;8.07;4.90;;;;;;;17.19;63.16;100525.66;126876;1088;102891;-81
2021/07/22 00:14:04;;;;;;;8.75;4.65;;;;;;;17.19;63.29;100533.56;126642;1090;115012;-81
2021/07/22 00:16:52;;;;;;;8.30;5.20;;;;;;;17.16;63.49;100536.37;126789;1090;103440;-82
2021/07/22 00:19:40;;;;;;;6.83;4.70;;;;;;;17.14;63.49;100530.34;126643;1089;114932;-81
2021/07/22 00:22:28;;;;;;;6.93;5.53;;;;;;;17.09;63.55;100527.95;126812;1089;103084;-81
2021/07/22 00:25:16;;;;;;;7.23;5.20;;;;;;;17.08;63.78;100525.41;126795;1089;102922;-80
2021/07/22 00:28:04;;;;;;;;;;;;;;;17.04;63.79;100526.48;126725;1090;113142;-80
2021/07/22 00:30:52;;;;;;;7.80;5.03;;;;;;;17.01;63.94;100531.93;126876;1088;103109;-82
2021/07/22 00:33:41;;;;;;;6.80;5.13;;;;;;;16.97;64.23;100536.52;126678;1090;114155;-81
2021/07/22 00:36:30;;;;;;;7.03;5.27;;;;;;;16.96;64.21;100533.97;126695;1090;103053;-82
2021/07/22 00:39:18;;;;;;;;;;;;;;;16.95;64.31;100537.54;126633;1089;113983;-82
2021/07/22 00:42:09;;;;;;;7.67;4.60;;;;;;;16.91;64.18;100537.71;126793;1088;102928;-81
2021/07/22 00:44:57;;;;;;;8.20;4.60;;;;;;;16.90;64.35;100546.55;126635;1090;114324;-81
2021/07/22 00:47:44;;;;;;;9.67;4.70;;;;;;;16.89;64.39;100544.00;126744;1089;101873;-82
2021/07/22 00:50:32;;;;;;;5.75;4.65;;;;;;;16.90;64.54;100545.70;126697;1090;114119;-81
2021/07/22 00:53:22;;;;;;;12.20;5.10;;;;;;;16.89;64.66;100544.85;126916;1090;103000;-81
2021/07/22 00:56:11;;;;;;;6.87;4.87;;;;;;;16.89;64.50;100536.09;126835;1090;114438;-81
2021/07/22 00:58:59;;;;;;;10.43;6.57;;;;;;;16.89;64.83;100547.48;126734;1090;102645;-81
2021/07/22 01:01:47;;;;;;;7.93;5.80;;;;;;;16.93;64.94;100544.68;126670;1090;114441;-82
2021/07/22 01:04:36;;;;;;;7.70;4.77;;;;;;;16.88;64.80;100552.84;126783;1089;103357;-81
2021/07/22 01:07:23;;;;;;;9.07;5.07;;;;;;;16.83;64.90;100547.79;126903;1089;102908;-81
2021/07/22 01:10:11;;;;;;;9.37;5.30;;;;;;;16.77;64.99;100542.86;126646;1089;113011;-81
2021/07/22 01:13:00;;;;;;;7.23;5.03;;;;;;;16.75;65.17;100536.83;126816;1089;104068;-81
2021/07/22 01:15:49;;;;;;;8.47;4.90;;;;;;;16.74;65.42;100540.39;126650;1089;114140;-81
2021/07/22 01:18:38;;;;;;;8.50;5.53;;;;;;;16.76;65.30;100538.52;126944;1089;102998;-81
2021/07/22 01:21:26;;;;;;;9.87;5.30;;;;;;;16.74;65.49;100543.02;126543;1090;114480;-82
2021/07/22 01:24:14;;;;;;;7.87;4.90;;;;;;;16.71;65.37;100544.98;126737;1090;102898;-82
2021/07/22 01:27:16;;;;;;;8.30;5.27;;;;;;;16.66;65.47;100537.26;126634;1088;113248;-82
2021/07/22 01:30:12;;;;;;;6.23;4.83;;;;;;;16.66;65.59;100536.41;126821;1090;102960;-81
2021/07/22 01:32:59;;;;;;;7.43;5.00;;;;;;;16.65;65.69;100542.61;126608;1090;113087;-81
2021/07/22 01:35:47;;;;;;;8.63;5.70;;;;;;;16.64;65.81;100539.13;126783;1090;102269;-81
2021/07/22 01:38:36;;;;;;;7.00;5.20;;;;;;;16.67;65.81;100538.14;126686;1090;114332;-82
2021/07/22 01:41:24;;;;;;;7.97;4.90;;;;;;;16.63;65.78;100542.69;126749;1089;103084;-81
2021/07/22 01:44:15;;;;;;;9.43;5.40;;;;;;;16.63;65.94;100542.69;126673;1089;114432;-81
2021/07/22 01:47:04;;;;;;;6.97;4.97;;;;;;;16.61;66.03;100544.56;126829;1090;101674;-81
2021/07/22 01:49:52;;;;;;;8.13;5.50;;;;;;;16.60;66.19;100541.08;126820;1088;115427;-81
2021/07/22 01:52:40;;;;;;;8.10;5.50;;;;;;;16.60;66.17;100537.59;126788;1090;102897;-81
2021/07/22 01:55:30;;;;;;;8.13;5.23;;;;;;;16.60;66.39;100546.34;126700;1089;102862;-81
2021/07/22 01:58:22;;;;;;;9.80;5.10;;;;;;;16.59;66.24;100549.06;126666;1088;114270;-81
2021/07/22 02:01:11;;;;;;;7.70;5.73;;;;;;;16.59;66.51;100544.64;126863;1090;102820;-81
2021/07/22 02:04:00;;;;;;;9.07;5.27;;;;;;;16.59;66.52;100544.64;126790;1089;113138;-81
2021/07/22 02:06:49;;;;;;;8.65;5.70;;;;;;;16.59;66.45;100546.42;126938;1090;102855;-81
2021/07/22 02:09:38;;;;;;;8.00;5.03;;;;;;;16.56;66.54;100544.80;126726;1089;114230;-82
2021/07/22 02:12:25;;;;;;;8.40;5.30;;;;;;;16.54;66.57;100543.19;126791;1089;102977;-81
2021/07/22 02:15:15;;;;;;;7.80;5.43;;;;;;;16.56;66.73;100549.22;126659;1090;114191;-81
2021/07/22 02:18:03;;;;;;;9.00;5.47;;;;;;;16.55;66.77;100539.63;126952;1089;102975;-81
2021/07/22 02:20:50;;;;;;;7.40;5.40;;;;;;;16.53;66.87;100537.08;126624;1089;114384;-82
2021/07/22 02:23:39;;;;;;;8.93;4.80;;;;;;;16.55;66.94;100542.26;126708;1090;103012;-81
2021/07/22 02:26:56;;;;;;;7.93;4.83;;;;;;;16.55;66.78;100547.52;126722;1090;114273;-80
2021/07/22 02:29:44;;;;;;;9.67;5.87;;;;;;;16.57;67.01;100548.29;126735;1088;102979;-81
2021/07/22 02:32:32;;;;;;;7.87;5.40;;;;;;;16.55;67.06;100544.89;126664;1089;114255;-81
2021/07/22 02:35:20;;;;;;;11.73;5.83;;;;;;;16.56;67.15;100547.44;126796;1090;102853;-80
2021/07/22 02:38:37;;;;;;;9.37;5.13;;;;;;;16.55;66.96;100550.16;126600;1089;114296;-81
2021/07/22 02:41:32;;;;;;;7.33;5.30;;;;;;;16.56;66.96;100549.22;126706;1090;102879;-81
2021/07/22 02:44:20;;;;;;;8.63;6.10;;;;;;;16.58;67.23;100558.74;126622;1089;114268;-81
2021/07/22 02:47:18;;;;;;;8.10;5.77;;;;;;;16.59;67.27;100551.69;126851;1088;102871;-81
2021/07/22 02:50:14;;;;;;;9.63;5.50;;;;;;;16.56;67.25;100557.97;126756;1090;114311;-81
2021/07/22 02:53:05;;;;;;;9.67;5.80;;;;;;;16.59;67.44;100556.95;126806;1088;103052;-81
2021/07/22 02:56:02;;;;;;;9.65;5.05;;;;;;;16.60;67.48;100548.97;126855;1088;102939;-81
2021/07/22 02:58:51;;;;;;;7.97;5.30;;;;;;;16.61;67.45;100548.05;126790;1088;103119;-81
2021/07/22 03:01:41;;;;;;;11.40;5.80;;;;;;;16.67;67.41;100553.95;126790;1088;102879;-81
2021/07/22 03:04:34;;;;;;;8.03;5.40;;;;;;;16.68;67.63;100550.38;126632;1089;114278;-81
2021/07/22 03:07:33;;;;;;;;;;;;;;;16.71;67.56;100551.09;126786;1090;102946;-81
2021/07/22 03:10:23;;;;;;;10.07;5.10;;;;;;;16.74;67.75;100561.46;126871;1089;103035;-81
2021/07/22 03:13:12;;;;;;;7.90;5.07;;;;;;;16.80;67.58;100560.28;126716;1090;103316;-80
2021/07/22 03:16:00;;;;;;;6.97;5.00;;;;;;;16.84;67.65;100554.75;126696;1089;113981;-81
2021/07/22 03:19:08;;;;;;;10.23;6.50;;;;;;;16.95;67.50;100561.25;126941;1090;102898;-81
2021/07/22 03:22:11;;;;;;;11.40;6.00;;;;;;;17.02;67.42;100567.88;126576;1090;114518;-81
2021/07/22 03:25:37;;;;;;;7.97;5.40;;;;;;;17.11;67.41;100567.41;126814;1090;102885;-81
2021/07/22 03:28:44;;;;;;;8.87;5.40;;;;;;;17.10;67.22;100570.97;126700;1090;112942;-81
2021/07/22 03:31:55;;;;;;;9.60;5.07;;;;;;;17.11;67.23;100578.80;126849;1089;102951;-81
2021/07/22 03:34:50;;;;;;;8.10;5.87;;;;;;;17.12;67.15;100569.11;126686;1090;114003;-81
2021/07/22 03:37:48;;;;;;;;;;;;;;;17.14;67.15;100575.14;126888;1090;102860;-81
2021/07/22 03:40:41;;;;;;;9.97;5.57;;;;;;;17.13;66.77;100581.34;126716;1090;103002;-81
2021/07/22 03:43:30;;;;;;;8.10;5.40;;;;;;;17.13;66.89;100579.56;127010;1089;102858;-81
2021/07/22 03:46:19;;;;;;;10.43;6.00;;;;;;;17.17;66.77;100585.52;126843;1090;114453;-81
2021/07/22 03:49:08;;;;;;;9.10;5.90;;;;;;;17.22;66.91;100580.83;126839;1090;102865;-81
2021/07/22 03:51:59;;;;;;;7.93;5.40;;;;;;;17.26;66.88;100586.81;126749;1090;114240;-81
2021/07/22 03:54:53;;;;;;;8.70;5.87;;;;;;;17.27;66.82;100581.45;126749;1088;102998;-81
2021/07/22 03:57:42;;;;;;;7.37;5.77;;;;;;;17.28;66.77;100587.58;126610;1089;114605;-80
2021/07/22 04:00:31;;;;;;;7.47;5.67;;;;;;;17.31;66.68;100588.26;126791;1090;102949;-81
2021/07/22 04:03:25;;;;;;;9.95;6.00;;;;;;;17.35;66.70;100591.57;126894;1089;114073;-81
2021/07/22 04:06:13;;;;;;;9.23;5.60;;;;;;;17.39;66.55;100596.58;126770;1089;103005;-81
2021/07/22 04:09:04;;;;;;;8.70;5.70;;;;;;;17.43;66.45;100592.02;126847;1088;114283;-81
2021/07/22 04:11:58;;;;;;;9.23;5.93;;;;;;;17.53;66.66;100594.05;126754;1090;102855;-81
2021/07/22 04:15:08;;;;;;;9.03;5.63;;;;;;;17.63;66.79;100583.00;126712;1089;114274;-81
2021/07/22 04:18:25;;;;;;;9.03;5.87;;;;;;;17.74;66.52;100589.39;126802;1093;103131;-81
2021/07/22 04:21:28;;;;;;;9.25;5.25;;;;;;;17.84;66.23;100586.24;126319;1092;114390;-81
2021/07/22 04:24:35;;;;;;;12.83;6.13;;;;;;;17.91;66.24;100588.43;126527;1093;102891;-81
2021/07/22 04:27:43;;;;;;;;;;;;;;;18.02;66.18;100591.31;126661;1093;114499;-81
2021/07/22 04:30:37;;;;;;;9.50;5.60;;;;;;;18.12;65.99;100587.19;126681;1092;103019;-81
2021/07/22 04:33:46;;;;;;;8.50;5.63;;;;;;;18.32;65.80;100583.41;126557;1093;113013;-81
2021/07/22 04:36:50;;;;;;;10.73;5.97;;;;;;;18.54;65.77;100588.27;126397;1092;102904;-80
2021/07/22 04:39:43;;;;;;;7.43;5.77;;;;;;;18.66;65.27;100584.91;126392;1093;114456;-81
2021/07/22 04:43:00;;;;;;;8.33;5.50;;;;;;;18.82;64.80;100581.34;126621;1093;103002;-81
2021/07/22 04:46:05;;;;;;;6.63;5.13;;;;;;;18.95;64.69;100593.72;126329;1092;113047;-82
2021/07/22 04:49:11;;;;;;;9.77;5.83;;;;;;;19.11;64.49;100590.98;126714;1091;102913;-82
2021/07/22 04:52:25;;;;;;;8.77;5.20;;;;;;;19.22;63.93;100595.62;126360;1093;113143;-81
2021/07/22 04:55:36;;;;;;;8.60;5.30;;;;;;;19.23;63.73;100595.52;126809;1090;102888;-81
2021/07/22 04:58:26;;;;;;;7.07;4.70;;;;;;;19.28;63.61;100596.06;126801;1089;114419;-81
2021/07/22 05:01:16;;;;;;;7.90;5.00;;;;;;;19.31;63.29;100590.58;126841;1090;100977;-82
2021/07/22 05:04:06;;;;;;;9.07;5.13;;;;;;;19.47;63.65;100589.62;126857;1090;114275;-83
2021/07/22 05:07:17;;;;;;;9.63;5.33;;;;;;;19.67;63.41;100597.16;126903;1090;102931;-83
2021/07/22 05:10:15;;;;;;;7.03;4.60;;;;;;;19.79;62.62;100601.67;126885;1090;113049;-83
2021/07/22 05:13:38;;;;;;;7.63;4.70;;;;;;;19.94;62.56;100598.98;126852;1090;102860;-84
2021/07/22 05:16:49;;;;;;;5.77;4.60;;;;;;;20.00;62.05;100604.71;126750;1089;112864;-83
2021/07/22 05:19:58;;;;;;;7.55;4.60;;;;;;;20.02;61.62;100601.96;126850;1090;102942;-83
2021/07/22 05:23:08;;;;;;;9.03;4.93;;;;;;;20.05;61.49;100599.11;126481;1090;114026;-82
2021/07/22 05:26:22;;;;;;;7.17;5.57;;;;;;;20.10;61.00;100602.30;126726;1089;102953;-82
2021/07/22 05:29:49;;;;;;;9.95;8.20;;;;;;;20.22;61.51;100593.55;126808;1089;102944;-83
2021/07/22 05:33:09;;;;;;;12.30;5.80;;;;;;;20.50;61.00;100597.88;126816;1090;102862;-83
2021/07/22 05:36:27;;;;;;;10.47;6.27;;;;;;;20.76;60.46;100604.04;126839;1090;101992;-83
2021/07/22 05:39:32;;;;;;;9.83;6.90;;;;;;;21.04;60.37;100593.23;126702;1090;103387;-82
2021/07/22 05:42:20;;;;;;;8.43;5.20;;;;;;;21.22;59.41;100600.84;126691;1090;114172;-83
2021/07/22 05:45:09;;;;;;;6.27;4.50;;;;;;;21.38;59.37;100601.48;126768;1089;102959;-82
2021/07/22 05:48:01;;;;;;;8.70;4.67;;;;;;;21.61;59.05;100595.36;126725;1090;114277;-82
2021/07/22 05:50:51;;;;;;;7.70;4.50;;;;;;;21.82;57.99;100589.44;126769;1090;102937;-83
2021/07/22 05:53:39;;;;;;;9.83;5.10;;;;;;;22.02;57.35;100596.78;126749;1089;114164;-83
2021/07/22 05:56:27;;;;;;;7.83;4.20;;;;;;;22.37;56.65;100593.32;126801;1089;102904;-83
2021/07/22 05:59:15;;;;;;;6.57;4.60;;;;;;;22.60;56.07;100592.41;126658;1089;113414;-84
2021/07/22 06:02:04;;;;;;;7.73;4.40;;;;;;;22.81;55.85;100600.56;126726;1089;102975;-83
2021/07/22 06:04:52;;;;;;;11.10;6.73;;;;;;;23.04;55.46;100601.45;126704;1090;114136;-83
2021/07/22 06:07:40;;;;;;;9.73;5.50;;;;;;;23.14;55.65;100597.08;126902;1089;102682;-83
2021/07/22 06:10:28;;;;;;;9.23;4.17;;;;;;;23.41;54.73;100600.23;126576;1089;114487;-83
2021/07/22 06:13:15;;;;;;;11.13;4.50;;;;;;;24.15;54.51;100597.75;126941;1090;102827;-83
2021/07/22 06:16:08;;;;;;;9.23;4.10;;;;;;;24.76;53.24;100581.07;126832;1089;114401;-84
2021/07/22 06:18:55;;;;;;;13.77;9.50;;;;;;;25.20;52.04;100586.09;126699;1090;103058;-83
2021/07/22 06:21:43;;;;;;;11.90;6.13;;;;;;;25.49;51.19;100593.33;126658;1089;102940;-83
2021/07/22 06:24:32;;;;;;;9.97;6.50;;;;;;;25.76;50.28;100590.91;126648;1090;114276;-83
2021/07/22 06:27:19;;;;;;;6.30;4.70;;;;;;;26.26;49.56;100593.47;126729;1089;103437;-83
2021/07/22 06:30:10;;;;;;;9.53;4.57;;;;;;;26.72;48.37;100589.19;126669;1089;114290;-83
2021/07/22 06:32:58;;;;;;;4.93;3.27;;;;;;;27.96;47.13;100586.91;126783;1090;102964;-84
2021/07/22 06:35:46;;;;;;;9.23;3.47;;;;;;;28.54;44.72;100583.72;126612;1090;114202;-83
2021/07/22 06:38:34;;;;;;;8.73;3.60;;;;;;;28.57;44.21;100579.91;126818;1088;102884;-82
2021/07/22 06:41:23;;;;;;;4.03;2.90;;;;;;;28.57;43.32;100585.28;126646;1088;112989;-83
2021/07/22 06:44:11;;;;;;;8.90;3.70;;;;;;;28.49;42.90;100582.52;126725;1089;102974;-83
2021/07/22 06:47:01;;;;;;;11.07;5.00;;;;;;;28.47;43.26;100581.84;126635;1090;114120;-83
2021/07/22 06:49:49;;;;;;;17.80;7.30;;;;;;;28.51;42.51;100592.09;126749;1090;103012;-83
2021/07/22 06:52:37;;;;;;;9.30;4.40;;;;;;;28.46;42.74;100585.52;126616;1090;114464;-83
2021/07/22 06:55:25;;;;;;;4.77;3.10;;;;;;;28.47;42.22;100585.36;126718;1089;102990;-81
2021/07/22 06:58:13;;;;;;;6.93;3.50;;;;;;;28.68;42.10;100589.52;126628;1090;114303;-79
2021/07/22 07:01:02;;;;;;;4.73;3.07;;;;;;;28.82;41.35;100586.27;126719;1089;102888;-81
2021/07/22 07:03:50;;;;;;;6.20;2.83;;;;;;;28.94;40.76;100584.20;126892;1090;102854;-81
2021/07/22 07:06:38;;;;;;;5.60;3.00;;;;;;;29.03;40.21;100585.91;126524;1090;113992;-80
2021/07/22 07:09:26;;;;;;;5.03;2.80;;;;;;;29.17;40.49;100585.31;126757;1090;102983;-81
2021/07/22 07:12:13;;;;;;;5.47;3.20;;;;;;;29.39;39.67;100591.94;126773;1089;114139;-80
2021/07/22 07:15:01;;;;;;;4.33;2.50;;;;;;;29.60;39.35;100586.15;126687;1090;101814;-83
2021/07/22 07:17:49;;;;;;;3.77;2.60;;;;;;;29.80;39.02;100587.53;126561;1090;114107;-81
2021/07/22 07:20:37;;;;;;;3.87;2.60;;;;;;;29.92;38.69;100588.91;126688;1089;102919;-80
2021/07/22 07:23:24;;;;;;;3.90;2.47;;;;;;;30.33;38.23;100586.26;126829;1090;114114;-80
2021/07/22 07:26:12;;;;;;;3.90;2.60;;;;;;;30.55;37.74;100585.59;126619;1090;102936;-80
2021/07/22 07:29:03;;;;;;;4.93;2.50;;;;;;;30.61;37.09;100584.06;126629;1089;115017;-80
2021/07/22 07:31:50;;;;;;;15.57;12.13;;;;;;;30.81;36.95;100584.55;126567;1088;102874;-79
2021/07/22 07:34:38;;;;;;;7.90;3.67;;;;;;;30.96;36.30;100588.22;126541;1089;113716;-79
2021/07/22 07:37:26;;;;;;;6.87;3.20;;;;;;;31.03;36.54;100586.50;126584;1089;103040;-79
2021/07/22 07:40:17;;;;;;;3.93;2.60;;;;;;;31.23;35.48;100593.19;126749;1090;102858;-80
2021/07/22 07:43:05;;;;;;;4.93;2.90;;;;;;;31.20;35.08;100588.15;126735;1090;102845;-80
2021/07/22 07:45:54;;;;;;;5.30;3.30;;;;;;;31.31;35.23;100586.10;126744;1089;102901;-79
2021/07/22 07:48:42;;;;;;;4.47;2.30;;;;;;;31.36;34.78;100586.41;126649;1090;114213;-80
2021/07/22 07:51:30;;;;;;;8.90;2.67;;;;;;;31.28;34.62;100586.45;126729;1090;102911;-79
2021/07/22 07:54:21;;;;;;;4.83;2.27;;;;;;;31.34;34.21;100589.28;126707;1090;113096;-80
2021/07/22 07:57:10;;;;;;;3.43;2.47;;;;;;;31.57;33.88;100582.07;126955;1090;100871;-80
2021/07/22 07:59:59;;;;;;;4.23;2.00;;;;;;;31.95;33.52;100589.45;126618;1089;114042;-79
2021/07/22 08:02:47;;;;;;;4.23;1.93;;;;;;;32.45;32.98;100587.03;126598;1090;103001;-80
2021/07/22 08:05:39;;;;;;;5.20;2.00;;;;;;;32.73;32.67;100583.73;126613;1090;114356;-80
2021/07/22 08:08:27;;;;;;;3.37;2.30;;;;;;;33.03;31.96;100587.30;126642;1089;102905;-80
2021/07/22 08:11:16;;;;;;;5.70;2.00;;;;;;;33.52;31.01;100574.03;126499;1088;113152;-80
2021/07/22 08:14:03;;;;;;;3.30;1.70;;;;;;;33.90;30.44;100581.95;126725;1088;103002;-79
2021/07/22 08:16:52;;;;;;;3.13;1.77;;;;;;;33.83;29.70;100581.86;126561;1090;114257;-79
2021/07/22 08:19:40;;;;;;;4.80;2.10;;;;;;;34.01;29.91;100581.45;126569;1089;102940;-79
2021/07/22 08:22:28;;;;;;;3.43;1.63;;;;;;;34.15;29.52;100577.84;126522;1090;102929;-79
2021/07/22 08:25:17;;;;;;;3.67;1.80;;;;;;;34.45;29.11;100572.27;126423;1090;114153;-80
2021/07/22 08:28:06;;;;;;;2.63;1.90;;;;;;;34.72;29.03;100576.84;126507;1090;102850;-80
2021/07/22 08:30:54;;;;;;;6.83;2.30;;;;;;;35.01;28.79;100572.23;126481;1089;114184;-80
2021/07/22 08:33:43;;;;;;;3.73;2.07;;;;;;;34.72;28.10;100563.30;126628;1089;102852;-79
2021/07/22 08:36:31;;;;;;;2.77;2.10;;;;;;;34.43;28.44;100571.63;126538;1089;114212;-79
2021/07/22 08:39:18;;;;;;;3.97;1.97;;;;;;;34.43;28.40;100571.63;126648;1090;103349;-79
2021/07/22 08:42:07;;;;;;;4.30;2.57;;;;;;;34.30;28.67;100574.22;126449;1090;114127;-78
2021/07/22 08:44:56;;;;;;;6.27;2.30;;;;;;;34.12;28.93;100567.41;126633;1090;102893;-79
2021/07/22 08:47:45;;;;;;;3.63;2.20;;;;;;;34.06;29.01;100570.88;126651;1090;114252;-80
2021/07/22 08:50:33;;;;;;;4.53;2.60;;;;;;;33.89;28.81;100569.45;126697;1089;102859;-80
2021/07/22 08:53:22;;;;;;;4.87;2.23;;;;;;;33.99;28.76;100569.14;126622;1089;114808;-80
2021/07/22 08:56:10;;;;;;;2.60;2.20;;;;;;;34.05;28.44;100569.20;126735;1088;103437;-80
2021/07/22 08:59:00;;;;;;;6.13;2.50;;;;;;;34.07;28.47;100561.72;126678;1090;114759;-79
2021/07/22 09:01:51;;;;;;;3.03;2.10;;;;;;;34.15;28.47;100569.72;126747;1089;102849;-81
2021/07/22 09:04:59;;;;;;;4.03;2.23;;;;;;;34.34;27.76;100570.91;126751;1090;102890;-82
2021/07/22 09:07:47;;;;;;;2.43;2.00;;;;;;;33.97;27.65;100571.21;126913;1089;102889;-82
2021/07/22 09:10:35;;;;;;;2.55;1.80;;;;;;;33.85;27.53;100562.77;126791;1090;102843;-80
2021/07/22 09:13:25;;;;;;;2.90;1.90;;;;;;;34.27;27.81;100566.46;126724;1090;114262;-82
2021/07/22 09:16:13;;;;;;;2.20;1.67;;;;;;;34.40;26.93;100563.90;126796;1090;102959;-83
2021/07/22 09:19:01;;;;;;;3.40;1.60;;;;;;;34.37;26.71;100565.13;126645;1088;114096;-82
2021/07/22 09:21:48;;;;;;;2.17;1.77;;;;;;;34.35;26.67;100563.63;126765;1090;102862;-82
2021/07/22 09:24:53;;;;;;;2.45;1.80;;;;;;;34.74;26.57;100561.22;126608;1089;114484;-80
2021/07/22 09:27:45;;;;;;;3.53;1.60;;;;;;;35.07;26.20;100568.73;126850;1089;102856;-81
2021/07/22 09:30:34;;;;;;;3.37;2.30;;;;;;;35.15;25.96;100560.41;126585;1090;113665;-81
2021/07/22 09:33:38;;;;;;;4.50;1.80;;;;;;;35.18;25.55;100565.42;126747;1090;102865;-81
2021/07/22 09:36:26;;;;;;;3.07;1.90;;;;;;;35.41;25.58;100565.16;126662;1089;114477;-80
2021/07/22 09:39:22;;;;;;;2.80;1.60;;;;;;;35.64;25.52;100559.37;126901;1089;102865;-80
2021/07/22 09:42:10;;;;;;;1.83;1.53;;;;;;;36.17;25.48;100560.30;126727;1089;114281;-82
2021/07/22 09:44:58;;;;;;;3.63;1.77;;;;;;;36.61;24.67;100558.81;126727;1089;101101;-83
2021/07/22 09:47:47;;;;;;;3.25;1.60;;;;;;;36.89;23.98;100550.43;126650;1089;114256;-83
2021/07/22 09:50:41;;;;;;;2.65;1.70;;;;;;;36.99;23.57;100550.83;126789;1090;103431;-83
2021/07/22 09:53:31;;;;;;;2.43;1.53;;;;;;;37.31;23.49;100550.91;126720;1090;113314;-83
2021/07/22 09:56:35;;;;;;;3.97;1.90;;;;;;;37.45;23.04;100547.91;126736;1088;103524;-80
2021/07/22 09:59:24;;;;;;;1.30;1.20;;;;;;;37.83;22.95;100548.95;126662;1090;113344;-80
2021/07/22 10:02:18;;;;;;;1.93;1.57;;;;;;;38.28;22.33;100552.41;126781;1090;102983;-80
2021/07/22 10:05:06;;;;;;;2.77;1.43;;;;;;;38.27;21.72;100539.84;126735;1089;103323;-80
2021/07/22 10:07:58;;;;;;;2.23;1.47;;;;;;;37.75;21.46;100545.47;126690;1090;114154;-79
2021/07/22 10:10:56;;;;;;;1.80;1.40;;;;;;;37.65;21.49;100547.78;126723;1090;103105;-80
2021/07/22 10:13:47;;;;;;;3.37;1.47;;;;;;;37.67;21.60;100542.13;126757;1090;114080;-80
2021/07/22 10:16:35;;;;;;;3.00;1.50;;;;;;;37.47;21.79;100547.69;126834;1090;101190;-80
2021/07/22 10:19:25;;;;;;;1.67;1.37;;;;;;;37.54;22.01;100553.95;126642;1089;114138;-79
2021/07/22 10:22:13;;;;;;;2.60;1.40;;;;;;;37.45;22.25;100555.23;126768;1089;103023;-79
2021/07/22 10:25:02;;;;;;;1.80;1.57;;;;;;;37.40;21.96;100553.18;126688;1089;114416;-80
2021/07/22 10:27:52;;;;;;;1.60;1.37;;;;;;;37.65;22.08;100538.79;126802;1090;102974;-82
2021/07/22 10:30:41;;;;;;;1.77;1.30;;;;;;;37.98;22.14;100536.70;126710;1089;114533;-82
2021/07/22 10:33:30;;;;;;;2.15;1.50;;;;;;;38.23;21.73;100544.05;126823;1090;102977;-82
2021/07/22 10:36:19;;;;;;;1.77;1.23;;;;;;;37.71;21.36;100536.05;126665;1090;114234;-82
2021/07/22 10:39:07;;;;;;;16.90;5.10;;;;;;;37.39;21.78;100534.36;126824;1090;103038;-80
2021/07/22 10:41:55;;;;;;;22.63;6.87;;;;;;;37.09;21.67;100536.76;126811;1089;114620;-80
2021/07/22 10:44:43;;;;;;;15.17;4.90;;;;;;;37.02;22.61;100536.80;126808;1090;101343;-83
2021/07/22 10:48:08;;;;;;;13.30;4.83;;;;;;;37.16;22.28;100522.06;126679;1090;101790;-82
2021/07/22 10:50:56;;;;;;;8.17;3.37;;;;;;;37.06;22.26;100516.27;126729;1090;103303;-82
2021/07/22 10:53:54;;;;;;;4.37;2.10;;;;;;;36.93;22.31;100526.36;126937;1090;103020;-79
2021/07/22 10:56:42;;;;;;;4.07;2.27;;;;;;;36.63;22.04;100521.42;126448;1090;114078;-78
2021/07/22 11:00:08;;;;;;;2.87;1.50;;;;;;;36.49;22.86;100520.61;126790;1090;103136;-79
2021/07/22 11:02:56;;;;;;;3.73;1.80;;;;;;;36.49;22.83;100520.61;126186;1093;114421;-79
2021/07/22 11:05:49;;;;;;;11.00;2.63;;;;;;;36.38;22.22;100509.55;126393;1093;102906;-79
2021/07/22 11:08:42;;;;;;;4.33;1.90;;;;;;;36.30;22.39;100505.16;126322;1093;113468;-80
2021/07/22 11:11:46;;;;;;;3.30;1.50;;;;;;;36.21;22.13;100504.52;126250;1093;103018;-79
2021/07/22 11:14:34;;;;;;;1.80;1.50;;;;;;;36.18;23.15;100512.25;126097;1092;114540;-78
2021/07/22 11:17:33;;;;;;;2.73;1.53;;;;;;;35.94;22.11;100505.59;126363;1093;102865;-79
2021/07/22 11:20:21;;;;;;;2.63;1.87;;;;;;;35.42;22.41;100507.98;126293;1092;114813;-79
2021/07/22 11:23:12;;;;;;;2.60;1.80;;;;;;;35.07;23.04;100512.64;126171;1093;102993;-78
2021/07/22 11:26:00;;;;;;;2.67;2.10;;;;;;;35.17;23.00;100503.28;126118;1092;114225;-79
2021/07/22 11:28:52;;;;;;;3.93;2.00;;;;;;;35.16;22.74;100496.19;126164;1093;103011;-80
2021/07/22 11:31:41;;;;;;;3.07;1.60;;;;;;;35.01;22.98;100508.05;126064;1093;114232;-79
2021/07/22 11:34:34;;;;;;;3.50;2.27;;;;;;;34.79;22.66;100490.17;126243;1092;103137;-80
2021/07/22 11:37:23;;;;;;;2.60;2.13;;;;;;;34.47;23.06;100494.36;126664;1090;113035;-80
2021/07/22 11:40:12;;;;;;;2.70;1.80;;;;;;;34.43;23.27;100485.80;126912;1090;102951;-80
2021/07/22 11:43:00;;;;;;;3.05;2.15;;;;;;;34.35;22.87;100485.10;126753;1089;114242;-79
2021/07/22 11:45:50;;;;;;;2.83;1.90;;;;;;;34.18;22.53;100481.86;126635;1089;101468;-80
2021/07/22 11:48:39;;;;;;;2.80;2.10;;;;;;;33.92;22.55;100482.47;126563;1090;114429;-80
2021/07/22 11:51:29;;;;;;;2.70;1.90;;;;;;;33.82;23.33;100482.80;126768;1090;102943;-80
2021/07/22 11:54:18;;;;;;;1.80;1.70;;;;;;;33.80;23.19;100474.03;126732;1090;101865;-80
2021/07/22 11:57:10;;;;;;;2.37;1.77;;;;;;;33.62;23.27;100477.20;126643;1090;114217;-79
2021/07/22 11:59:58;;;;;;;2.37;1.67;;;;;;;33.39;23.95;100476.53;126635;1090;103113;-79
2021/07/22 12:02:54;;;;;;;3.93;1.90;;;;;;;33.26;24.10;100470.97;126441;1090;114152;-79
2021/07/22 12:05:42;;;;;;;4.77;2.00;;;;;;;33.09;24.35;100474.94;126652;1088;101692;-80
2021/07/22 12:08:30;;;;;;;2.10;1.83;;;;;;;32.71;23.84;100462.39;126330;1090;114423;-80
2021/07/22 12:11:18;;;;;;;2.40;2.10;;;;;;;32.27;24.20;100469.63;126451;1090;102977;-79
2021/07/22 12:14:06;;;;;;;3.17;2.37;;;;;;;31.92;24.42;100463.03;126299;1090;113016;-80
2021/07/22 12:16:55;;;;;;;2.73;2.20;;;;;;;31.77;24.75;100460.28;126595;1090;102668;-81
2021/07/22 12:19:47;;;;;;;2.40;2.20;;;;;;;31.58;24.96;100475.91;126748;1089;116150;-82
2021/07/22 12:22:40;;;;;;;2.13;1.93;;;;;;;31.36;24.48;100465.13;126464;1089;102946;-80
2021/07/22 12:25:28;;;;;;;3.87;2.20;;;;;;;30.98;25.10;100473.05;126531;1089;114824;-83
2021/07/22 12:28:18;;;;;;;2.77;2.20;;;;;;;30.66;25.84;100466.79;126505;1090;101823;-81
2021/07/22 12:31:20;;;;;;;3.87;2.50;;;;;;;30.33;26.36;100462.48;126459;1090;114299;-79
2021/07/22 12:34:09;;;;;;;3.83;2.40;;;;;;;30.01;27.42;100466.89;126456;1089;102890;-78
2021/07/22 12:36:57;;;;;;;3.47;2.80;;;;;;;29.61;27.84;100473.09;126284;1088;114289;-78
2021/07/22 12:39:45;;;;;;;3.40;2.30;;;;;;;29.20;29.27;100474.84;126426;1090;102875;-80
2021/07/22 12:42:34;;;;;;;2.97;2.20;;;;;;;28.76;30.09;100472.33;126430;1090;103113;-79
2021/07/22 12:45:22;;;;;;;4.10;2.30;;;;;;;28.41;31.07;100473.33;126361;1090;114097;-80
2021/07/22 12:48:12;;;;;;;3.13;2.27;;;;;;;28.15;31.44;100467.91;126436;1090;103007;-83
2021/07/22 12:51:08;;;;;;;2.57;2.33;;;;;;;27.82;31.94;100469.50;126365;1090;113066;-83
2021/07/22 12:53:56;;;;;;;4.27;2.67;;;;;;;27.54;32.40;100474.09;126480;1088;102999;-82
2021/07/22 12:56:44;;;;;;;3.47;2.60;;;;;;;27.30;33.10;100471.19;126411;1088;114281;-82
2021/07/22 12:59:32;;;;;;;4.83;2.50;;;;;;;27.07;33.22;100476.94;126515;1089;103624;-82
2021/07/22 13:02:26;;;;;;;3.17;2.30;;;;;;;26.89;33.80;100476.02;126607;1090;114695;-82
2021/07/22 13:05:15;;;;;;;3.90;3.07;;;;;;;26.71;34.42;100469.77;126756;1090;102891;-81